Holyoke, CO

9:39 AM MST on March 03, 2015 (GMT -0700)
Wray Municipal Airport | Change Station
CLOSE
Current Station
Airport
Location: Wray Municipal Airport,
Elevation: 3668 ft
Nearby Weather Stations

Elev 3668 ft 40.10 °N, 102.24 °W | Updated 4 minutes ago

Overcast
Overcast
25 °F
Feels Like 11 °F
N
22
Wind Variable Wind from North
Gusts 32 mph

Today
High -- | Low -- °F
--% Chance of Precip.
Yesterday
High -- | Low -- °F
Precip. -- in
6:20 AM 5:42 PM
Waxing Gibbous, 96% visible
Pressure 29.93 in
Visibility 10.0 miles
Clouds Mostly Cloudy 1500 ft
Overcast 3100 ft
Windchill 11 °F
Dew Point 16 °F
Humidity 69%
Rainfall 0.00 in
Snow Depth Not available.
UV 1 out of 12
Pollen 3.70 out of 12
Air Quality Not available.
Flu Activity Not available.
METAR K2V5 031635Z AUTO 01019G28KT 10SM BKN015 OVC031 M04/M09 A2993 RMK AO2 T10371086

More Conditions Fewer Conditions

Pressure 29.93 in
Visibility 10.0 miles
Clouds Mostly Cloudy 1500 ft
Overcast 3100 ft
Windchill 11 °F
Dew Point 16 °F
Humidity 69%
Rainfall 0.00 in
Snow Depth Not available.
UV 1 out of 12
Pollen 3.70 out of 12
Air Quality Not available.
Flu Activity Not available.
METAR K2V5 031635Z AUTO 01019G28KT 10SM BKN015 OVC031 M04/M09 A2993 RMK AO2 T10371086

More Conditions Fewer Conditions

Nowcast | as of 6:53 am MST on March 3, 2015

North winds at 20 to 35 mph will continue across northeastern Colorado this morning...with wind chills near zero. There will also be isolated light snow showers developing and some areas may receive a dusting of snow.

×

10-Day Weather Forecast

Almanac

Astronomy

Mar. 03, 2015 Rise Set
Actual Time
Civil Twilight
Nautical Twilight
Astronomical Twilight
Moon
Length of Visible Light
Length of Day
Tomorrow will be .
, % of the Moon is Illuminated

Today's Extremes

State Highs State Lows

Community

WunderPhotos

Upload Photos

1,802,164 photos uploaded!

WunderBlogs® & News

Nearby

Air Quality

  Air Quality AQ Index Pollutant
Not available.

Snow Depth

Station Depth Elevation

Earthquake Activity

City Distance Mag. Time & Date
Minimum magnitude displayed is 2.5.

Coastal Water Temperatures

Place Temperature

Nearby Weather Stations